sensor_id;sensor_type;location;lat;lon;timestamp;P1;durP1;ratioP1;P2;durP2;ratioP2
23001;SDS011;11667;51.706;4.856;2023-07-22T00:00:35;15.75;;;7.85;;
23001;SDS011;11667;51.706;4.856;2023-07-22T00:03:05;17.17;;;8.58;;
23001;SDS011;11667;51.706;4.856;2023-07-22T00:05:34;14.10;;;8.15;;
23001;SDS011;11667;51.706;4.856;2023-07-22T00:08:04;18.02;;;8.40;;
23001;SDS011;11667;51.706;4.856;2023-07-22T00:10:33;17.60;;;8.05;;
23001;SDS011;11667;51.706;4.856;2023-07-22T00:13:03;15.93;;;7.97;;
23001;SDS011;11667;51.706;4.856;2023-07-22T00:15:32;16.27;;;8.03;;
23001;SDS011;11667;51.706;4.856;2023-07-22T00:18:02;17.12;;;8.20;;
23001;SDS011;11667;51.706;4.856;2023-07-22T00:20:31;15.75;;;8.35;;
23001;SDS011;11667;51.706;4.856;2023-07-22T00:23:01;16.57;;;8.33;;
23001;SDS011;11667;51.706;4.856;2023-07-22T00:25:30;16.27;;;7.80;;
23001;SDS011;11667;51.706;4.856;2023-07-22T00:27:59;14.80;;;7.60;;
23001;SDS011;11667;51.706;4.856;2023-07-22T00:30:29;18.98;;;8.30;;
23001;SDS011;11667;51.706;4.856;2023-07-22T00:32:58;16.05;;;7.83;;
23001;SDS011;11667;51.706;4.856;2023-07-22T00:35:28;19.00;;;8.93;;
23001;SDS011;11667;51.706;4.856;2023-07-22T00:37:58;15.95;;;8.00;;
23001;SDS011;11667;51.706;4.856;2023-07-22T00:40:31;15.68;;;7.92;;
23001;SDS011;11667;51.706;4.856;2023-07-22T00:43:01;18.30;;;7.70;;
23001;SDS011;11667;51.706;4.856;2023-07-22T00:45:32;18.45;;;8.15;;
23001;SDS011;11667;51.706;4.856;2023-07-22T00:48:01;15.32;;;7.47;;
23001;SDS011;11667;51.706;4.856;2023-07-22T00:50:31;20.43;;;8.58;;
23001;SDS011;11667;51.706;4.856;2023-07-22T00:53:02;15.00;;;7.87;;
23001;SDS011;11667;51.706;4.856;2023-07-22T00:55:32;19.52;;;8.08;;
23001;SDS011;11667;51.706;4.856;2023-07-22T00:58:02;17.55;;;7.83;;
23001;SDS011;11667;51.706;4.856;2023-07-22T01:00:31;13.90;;;7.55;;
23001;SDS011;11667;51.706;4.856;2023-07-22T01:03:01;17.75;;;7.53;;
23001;SDS011;11667;51.706;4.856;2023-07-22T01:05:30;15.45;;;7.72;;
23001;SDS011;11667;51.706;4.856;2023-07-22T01:08:00;16.52;;;8.43;;
23001;SDS011;11667;51.706;4.856;2023-07-22T01:10:30;15.10;;;7.80;;
23001;SDS011;11667;51.706;4.856;2023-07-22T01:12:59;15.63;;;7.90;;
23001;SDS011;11667;51.706;4.856;2023-07-22T01:15:28;19.02;;;8.33;;
23001;SDS011;11667;51.706;4.856;2023-07-22T01:17:58;15.98;;;8.13;;
23001;SDS011;11667;51.706;4.856;2023-07-22T01:20:29;18.98;;;8.13;;
23001;SDS011;11667;51.706;4.856;2023-07-22T01:22:59;19.95;;;7.90;;
23001;SDS011;11667;51.706;4.856;2023-07-22T01:25:29;19.02;;;8.13;;
23001;SDS011;11667;51.706;4.856;2023-07-22T01:27:58;19.65;;;8.45;;
23001;SDS011;11667;51.706;4.856;2023-07-22T01:30:28;19.77;;;8.35;;
23001;SDS011;11667;51.706;4.856;2023-07-22T01:32:57;16.52;;;7.72;;
23001;SDS011;11667;51.706;4.856;2023-07-22T01:35:26;21.57;;;8.15;;
23001;SDS011;11667;51.706;4.856;2023-07-22T01:37:56;20.68;;;8.98;;
23001;SDS011;11667;51.706;4.856;2023-07-22T01:40:25;19.20;;;8.23;;
23001;SDS011;11667;51.706;4.856;2023-07-22T01:42:56;20.50;;;8.83;;
23001;SDS011;11667;51.706;4.856;2023-07-22T01:45:25;18.45;;;8.23;;
23001;SDS011;11667;51.706;4.856;2023-07-22T01:47:55;22.40;;;8.50;;
23001;SDS011;11667;51.706;4.856;2023-07-22T01:50:24;16.93;;;8.78;;
23001;SDS011;11667;51.706;4.856;2023-07-22T01:52:54;19.98;;;8.90;;
23001;SDS011;11667;51.706;4.856;2023-07-22T01:55:23;18.65;;;9.00;;
23001;SDS011;11667;51.706;4.856;2023-07-22T01:57:53;19.02;;;8.48;;
23001;SDS011;11667;51.706;4.856;2023-07-22T02:00:23;19.15;;;8.85;;
23001;SDS011;11667;51.706;4.856;2023-07-22T02:02:54;19.55;;;8.85;;
23001;SDS011;11667;51.706;4.856;2023-07-22T02:05:24;17.92;;;8.88;;
23001;SDS011;11667;51.706;4.856;2023-07-22T02:07:54;19.37;;;8.95;;
23001;SDS011;11667;51.706;4.856;2023-07-22T02:10:24;21.42;;;8.98;;
23001;SDS011;11667;51.706;4.856;2023-07-22T02:12:53;18.02;;;8.53;;
23001;SDS011;11667;51.706;4.856;2023-07-22T02:15:22;21.68;;;8.70;;
23001;SDS011;11667;51.706;4.856;2023-07-22T02:17:52;20.52;;;8.53;;
23001;SDS011;11667;51.706;4.856;2023-07-22T02:20:23;18.82;;;8.70;;
23001;SDS011;11667;51.706;4.856;2023-07-22T02:22:54;23.73;;;9.23;;
23001;SDS011;11667;51.706;4.856;2023-07-22T02:25:24;22.30;;;9.90;;
23001;SDS011;11667;51.706;4.856;2023-07-22T02:27:53;21.30;;;9.40;;
23001;SDS011;11667;51.706;4.856;2023-07-22T02:30:23;20.97;;;9.23;;
23001;SDS011;11667;51.706;4.856;2023-07-22T02:32:52;21.62;;;9.15;;
23001;SDS011;11667;51.706;4.856;2023-07-22T02:35:21;20.55;;;9.38;;
23001;SDS011;11667;51.706;4.856;2023-07-22T02:37:51;18.87;;;9.05;;
23001;SDS011;11667;51.706;4.856;2023-07-22T02:40:20;26.57;;;10.13;;
23001;SDS011;11667;51.706;4.856;2023-07-22T02:42:49;18.75;;;8.70;;
23001;SDS011;11667;51.706;4.856;2023-07-22T02:45:19;19.42;;;9.00;;
23001;SDS011;11667;51.706;4.856;2023-07-22T02:47:48;21.25;;;9.33;;
23001;SDS011;11667;51.706;4.856;2023-07-22T02:50:18;22.40;;;9.63;;
23001;SDS011;11667;51.706;4.856;2023-07-22T02:52:47;22.77;;;9.95;;
23001;SDS011;11667;51.706;4.856;2023-07-22T02:55:17;25.77;;;9.18;;
23001;SDS011;11667;51.706;4.856;2023-07-22T02:57:47;22.13;;;10.05;;
23001;SDS011;11667;51.706;4.856;2023-07-22T03:00:17;20.70;;;9.00;;
23001;SDS011;11667;51.706;4.856;2023-07-22T03:02:53;23.52;;;10.13;;
23001;SDS011;11667;51.706;4.856;2023-07-22T03:05:25;22.45;;;10.50;;
23001;SDS011;11667;51.706;4.856;2023-07-22T03:07:56;19.60;;;9.55;;
23001;SDS011;11667;51.706;4.856;2023-07-22T03:10:26;24.20;;;10.15;;
23001;SDS011;11667;51.706;4.856;2023-07-22T03:12:56;20.92;;;9.35;;
23001;SDS011;11667;51.706;4.856;2023-07-22T03:15:27;22.20;;;9.90;;
23001;SDS011;11667;51.706;4.856;2023-07-22T03:17:56;21.57;;;9.83;;
23001;SDS011;11667;51.706;4.856;2023-07-22T03:20:27;23.45;;;10.05;;
23001;SDS011;11667;51.706;4.856;2023-07-22T03:22:56;24.35;;;9.98;;
23001;SDS011;11667;51.706;4.856;2023-07-22T03:25:26;20.48;;;8.88;;
23001;SDS011;11667;51.706;4.856;2023-07-22T03:27:56;23.98;;;9.55;;
23001;SDS011;11667;51.706;4.856;2023-07-22T03:30:25;24.43;;;9.63;;
23001;SDS011;11667;51.706;4.856;2023-07-22T03:32:54;25.15;;;10.23;;
23001;SDS011;11667;51.706;4.856;2023-07-22T03:35:25;23.18;;;10.58;;
23001;SDS011;11667;51.706;4.856;2023-07-22T03:37:54;25.62;;;10.13;;
23001;SDS011;11667;51.706;4.856;2023-07-22T03:40:24;26.77;;;11.12;;
23001;SDS011;11667;51.706;4.856;2023-07-22T03:42:58;24.00;;;11.03;;
23001;SDS011;11667;51.706;4.856;2023-07-22T03:45:28;27.15;;;11.05;;
23001;SDS011;11667;51.706;4.856;2023-07-22T03:47:57;25.60;;;10.58;;
23001;SDS011;11667;51.706;4.856;2023-07-22T03:50:28;27.52;;;10.80;;
23001;SDS011;11667;51.706;4.856;2023-07-22T03:52:57;25.72;;;11.30;;
23001;SDS011;11667;51.706;4.856;2023-07-22T03:55:27;28.42;;;10.80;;
23001;SDS011;11667;51.706;4.856;2023-07-22T03:57:56;27.42;;;10.82;;
23001;SDS011;11667;51.706;4.856;2023-07-22T04:00:25;25.60;;;10.70;;
23001;SDS011;11667;51.706;4.856;2023-07-22T04:02:55;26.02;;;10.45;;
23001;SDS011;11667;51.706;4.856;2023-07-22T04:05:25;24.35;;;10.90;;
23001;SDS011;11667;51.706;4.856;2023-07-22T04:07:54;30.35;;;12.00;;
23001;SDS011;11667;51.706;4.856;2023-07-22T04:10:24;28.47;;;10.38;;
23001;SDS011;11667;51.706;4.856;2023-07-22T04:12:53;26.73;;;11.35;;
23001;SDS011;11667;51.706;4.856;2023-07-22T04:15:22;26.30;;;11.22;;
23001;SDS011;11667;51.706;4.856;2023-07-22T04:17:52;28.25;;;11.93;;
23001;SDS011;11667;51.706;4.856;2023-07-22T04:20:22;30.80;;;11.85;;
23001;SDS011;11667;51.706;4.856;2023-07-22T04:22:52;29.85;;;12.15;;
23001;SDS011;11667;51.706;4.856;2023-07-22T04:25:22;28.40;;;11.95;;
23001;SDS011;11667;51.706;4.856;2023-07-22T04:27:52;31.40;;;12.95;;
23001;SDS011;11667;51.706;4.856;2023-07-22T04:30:21;33.80;;;13.75;;
23001;SDS011;11667;51.706;4.856;2023-07-22T04:32:53;32.75;;;13.13;;
23001;SDS011;11667;51.706;4.856;2023-07-22T04:35:22;28.42;;;12.60;;
23001;SDS011;11667;51.706;4.856;2023-07-22T04:37:51;29.07;;;12.43;;
23001;SDS011;11667;51.706;4.856;2023-07-22T04:40:21;32.40;;;14.40;;
23001;SDS011;11667;51.706;4.856;2023-07-22T04:42:52;32.55;;;13.55;;
23001;SDS011;11667;51.706;4.856;2023-07-22T04:45:22;28.07;;;12.73;;
23001;SDS011;11667;51.706;4.856;2023-07-22T04:47:54;32.38;;;13.62;;
23001;SDS011;11667;51.706;4.856;2023-07-22T04:50:24;29.30;;;12.95;;
23001;SDS011;11667;51.706;4.856;2023-07-22T04:52:53;31.00;;;13.58;;
23001;SDS011;11667;51.706;4.856;2023-07-22T04:55:23;33.08;;;13.88;;
23001;SDS011;11667;51.706;4.856;2023-07-22T04:57:53;29.70;;;12.82;;
23001;SDS011;11667;51.706;4.856;2023-07-22T05:00:23;27.13;;;12.45;;
23001;SDS011;11667;51.706;4.856;2023-07-22T05:02:52;33.08;;;13.45;;
23001;SDS011;11667;51.706;4.856;2023-07-22T05:05:23;29.12;;;13.10;;
23001;SDS011;11667;51.706;4.856;2023-07-22T05:07:53;31.57;;;12.70;;
23001;SDS011;11667;51.706;4.856;2023-07-22T05:10:22;29.98;;;12.40;;
23001;SDS011;11667;51.706;4.856;2023-07-22T05:12:52;26.82;;;12.37;;
23001;SDS011;11667;51.706;4.856;2023-07-22T05:15:21;28.92;;;12.18;;
23001;SDS011;11667;51.706;4.856;2023-07-22T05:17:51;25.27;;;12.47;;
23001;SDS011;11667;51.706;4.856;2023-07-22T05:20:20;27.85;;;12.20;;
23001;SDS011;11667;51.706;4.856;2023-07-22T05:22:49;27.52;;;11.10;;
23001;SDS011;11667;51.706;4.856;2023-07-22T05:25:19;29.10;;;11.83;;
23001;SDS011;11667;51.706;4.856;2023-07-22T05:27:49;27.60;;;12.33;;
23001;SDS011;11667;51.706;4.856;2023-07-22T05:30:18;23.73;;;11.12;;
23001;SDS011;11667;51.706;4.856;2023-07-22T05:32:52;27.65;;;12.20;;
23001;SDS011;11667;51.706;4.856;2023-07-22T05:35:22;26.85;;;12.40;;
23001;SDS011;11667;51.706;4.856;2023-07-22T05:37:51;27.52;;;12.05;;
23001;SDS011;11667;51.706;4.856;2023-07-22T05:40:21;28.65;;;11.57;;
23001;SDS011;11667;51.706;4.856;2023-07-22T05:42:50;26.23;;;11.90;;
23001;SDS011;11667;51.706;4.856;2023-07-22T05:45:19;23.62;;;10.45;;
23001;SDS011;11667;51.706;4.856;2023-07-22T05:47:49;26.75;;;11.75;;
23001;SDS011;11667;51.706;4.856;2023-07-22T05:50:18;25.40;;;11.20;;
23001;SDS011;11667;51.706;4.856;2023-07-22T05:52:48;25.05;;;10.98;;
23001;SDS011;11667;51.706;4.856;2023-07-22T05:55:17;21.90;;;10.35;;
23001;SDS011;11667;51.706;4.856;2023-07-22T05:57:47;23.45;;;11.38;;
23001;SDS011;11667;51.706;4.856;2023-07-22T06:00:16;24.75;;;11.40;;
23001;SDS011;11667;51.706;4.856;2023-07-22T06:02:46;22.98;;;10.60;;
23001;SDS011;11667;51.706;4.856;2023-07-22T06:05:16;23.85;;;10.98;;
23001;SDS011;11667;51.706;4.856;2023-07-22T06:07:48;28.10;;;11.80;;
23001;SDS011;11667;51.706;4.856;2023-07-22T06:10:18;31.50;;;10.93;;
23001;SDS011;11667;51.706;4.856;2023-07-22T06:12:47;25.70;;;10.80;;
23001;SDS011;11667;51.706;4.856;2023-07-22T06:15:17;24.75;;;11.10;;
23001;SDS011;11667;51.706;4.856;2023-07-22T06:17:46;27.70;;;11.53;;
23001;SDS011;11667;51.706;4.856;2023-07-22T06:20:15;24.07;;;10.35;;
23001;SDS011;11667;51.706;4.856;2023-07-22T06:22:45;21.40;;;9.98;;
23001;SDS011;11667;51.706;4.856;2023-07-22T06:25:14;24.47;;;10.70;;
23001;SDS011;11667;51.706;4.856;2023-07-22T06:27:44;19.65;;;10.50;;
23001;SDS011;11667;51.706;4.856;2023-07-22T06:30:13;21.77;;;10.45;;
23001;SDS011;11667;51.706;4.856;2023-07-22T06:32:42;22.90;;;9.90;;
23001;SDS011;11667;51.706;4.856;2023-07-22T06:35:12;26.25;;;10.43;;
23001;SDS011;11667;51.706;4.856;2023-07-22T06:37:41;21.65;;;11.00;;
23001;SDS011;11667;51.706;4.856;2023-07-22T06:40:11;22.48;;;9.90;;
23001;SDS011;11667;51.706;4.856;2023-07-22T06:42:41;23.32;;;10.82;;
23001;SDS011;11667;51.706;4.856;2023-07-22T06:45:10;22.87;;;9.68;;
23001;SDS011;11667;51.706;4.856;2023-07-22T06:47:39;22.45;;;9.03;;
23001;SDS011;11667;51.706;4.856;2023-07-22T06:50:09;17.02;;;8.73;;
23001;SDS011;11667;51.706;4.856;2023-07-22T06:52:38;18.73;;;9.80;;
23001;SDS011;11667;51.706;4.856;2023-07-22T06:55:08;22.98;;;9.90;;
23001;SDS011;11667;51.706;4.856;2023-07-22T06:57:38;21.25;;;9.45;;
23001;SDS011;11667;51.706;4.856;2023-07-22T07:00:08;23.27;;;10.08;;
23001;SDS011;11667;51.706;4.856;2023-07-22T07:02:38;19.00;;;8.93;;
23001;SDS011;11667;51.706;4.856;2023-07-22T07:05:08;20.25;;;8.83;;
23001;SDS011;11667;51.706;4.856;2023-07-22T07:07:38;18.27;;;8.88;;
23001;SDS011;11667;51.706;4.856;2023-07-22T07:10:08;17.80;;;8.75;;
23001;SDS011;11667;51.706;4.856;2023-07-22T07:12:38;18.50;;;8.75;;
23001;SDS011;11667;51.706;4.856;2023-07-22T07:15:07;19.60;;;8.80;;
23001;SDS011;11667;51.706;4.856;2023-07-22T07:17:37;15.60;;;8.08;;
23001;SDS011;11667;51.706;4.856;2023-07-22T07:20:07;19.90;;;9.45;;
23001;SDS011;11667;51.706;4.856;2023-07-22T07:22:36;19.42;;;7.92;;
23001;SDS011;11667;51.706;4.856;2023-07-22T07:25:06;19.85;;;8.53;;
23001;SDS011;11667;51.706;4.856;2023-07-22T07:27:36;16.12;;;8.45;;
23001;SDS011;11667;51.706;4.856;2023-07-22T07:30:05;22.67;;;8.68;;
23001;SDS011;11667;51.706;4.856;2023-07-22T07:32:36;18.57;;;8.33;;
23001;SDS011;11667;51.706;4.856;2023-07-22T07:35:06;15.38;;;8.30;;
23001;SDS011;11667;51.706;4.856;2023-07-22T07:37:36;16.87;;;7.78;;
23001;SDS011;11667;51.706;4.856;2023-07-22T07:40:05;16.07;;;7.40;;
23001;SDS011;11667;51.706;4.856;2023-07-22T07:42:36;15.53;;;7.60;;
23001;SDS011;11667;51.706;4.856;2023-07-22T07:45:05;17.80;;;7.50;;
23001;SDS011;11667;51.706;4.856;2023-07-22T07:47:35;14.90;;;7.55;;
23001;SDS011;11667;51.706;4.856;2023-07-22T07:50:05;18.60;;;8.30;;
23001;SDS011;11667;51.706;4.856;2023-07-22T07:52:35;16.52;;;7.40;;
23001;SDS011;11667;51.706;4.856;2023-07-22T07:55:06;16.85;;;7.80;;
23001;SDS011;11667;51.706;4.856;2023-07-22T07:57:36;14.23;;;7.10;;
23001;SDS011;11667;51.706;4.856;2023-07-22T08:00:06;16.52;;;7.37;;
23001;SDS011;11667;51.706;4.856;2023-07-22T08:02:36;16.35;;;7.58;;
23001;SDS011;11667;51.706;4.856;2023-07-22T08:05:06;13.75;;;6.85;;
23001;SDS011;11667;51.706;4.856;2023-07-22T08:07:35;17.92;;;7.83;;
23001;SDS011;11667;51.706;4.856;2023-07-22T08:10:05;15.03;;;7.50;;
23001;SDS011;11667;51.706;4.856;2023-07-22T08:12:38;15.48;;;7.40;;
23001;SDS011;11667;51.706;4.856;2023-07-22T08:15:07;13.25;;;6.80;;
23001;SDS011;11667;51.706;4.856;2023-07-22T08:17:36;16.00;;;6.62;;
23001;SDS011;11667;51.706;4.856;2023-07-22T08:20:06;14.55;;;6.67;;
23001;SDS011;11667;51.706;4.856;2023-07-22T08:22:36;13.83;;;6.47;;
23001;SDS011;11667;51.706;4.856;2023-07-22T08:25:05;13.75;;;6.37;;
23001;SDS011;11667;51.706;4.856;2023-07-22T08:27:35;12.47;;;5.85;;
23001;SDS011;11667;51.706;4.856;2023-07-22T08:30:04;13.78;;;6.83;;
23001;SDS011;11667;51.706;4.856;2023-07-22T08:32:34;13.45;;;6.30;;
23001;SDS011;11667;51.706;4.856;2023-07-22T08:35:04;14.60;;;6.05;;
23001;SDS011;11667;51.706;4.856;2023-07-22T08:37:34;10.35;;;5.22;;
23001;SDS011;11667;51.706;4.856;2023-07-22T08:40:04;13.65;;;5.33;;
23001;SDS011;11667;51.706;4.856;2023-07-22T08:42:35;10.32;;;5.20;;
23001;SDS011;11667;51.706;4.856;2023-07-22T08:45:05;10.60;;;4.87;;
23001;SDS011;11667;51.706;4.856;2023-07-22T08:47:38;10.05;;;5.17;;
23001;SDS011;11667;51.706;4.856;2023-07-22T08:50:07;10.53;;;4.72;;
23001;SDS011;11667;51.706;4.856;2023-07-22T08:52:37;9.50;;;4.37;;
23001;SDS011;11667;51.706;4.856;2023-07-22T08:55:07;9.98;;;4.20;;
23001;SDS011;11667;51.706;4.856;2023-07-22T08:57:38;9.38;;;4.20;;
23001;SDS011;11667;51.706;4.856;2023-07-22T09:00:08;7.92;;;4.05;;
23001;SDS011;11667;51.706;4.856;2023-07-22T09:02:38;7.70;;;4.37;;
23001;SDS011;11667;51.706;4.856;2023-07-22T09:05:09;9.85;;;4.50;;
23001;SDS011;11667;51.706;4.856;2023-07-22T09:07:38;6.15;;;3.98;;
23001;SDS011;11667;51.706;4.856;2023-07-22T09:10:08;8.45;;;4.15;;
23001;SDS011;11667;51.706;4.856;2023-07-22T09:12:38;6.12;;;3.80;;
23001;SDS011;11667;51.706;4.856;2023-07-22T09:15:14;6.45;;;3.90;;
23001;SDS011;11667;51.706;4.856;2023-07-22T09:17:39;8.43;;;4.25;;
23001;SDS011;11667;51.706;4.856;2023-07-22T09:20:09;8.05;;;4.35;;
23001;SDS011;11667;51.706;4.856;2023-07-22T09:22:43;7.75;;;4.00;;
23001;SDS011;11667;51.706;4.856;2023-07-22T09:25:15;7.10;;;4.00;;
23001;SDS011;11667;51.706;4.856;2023-07-22T09:27:48;7.67;;;4.47;;
23001;SDS011;11667;51.706;4.856;2023-07-22T09:30:20;10.98;;;4.75;;
23001;SDS011;11667;51.706;4.856;2023-07-22T09:32:58;7.35;;;3.90;;
23001;SDS011;11667;51.706;4.856;2023-07-22T09:35:29;9.50;;;4.10;;
23001;SDS011;11667;51.706;4.856;2023-07-22T09:38:00;7.72;;;3.85;;
23001;SDS011;11667;51.706;4.856;2023-07-22T09:40:39;7.70;;;3.90;;
23001;SDS011;11667;51.706;4.856;2023-07-22T09:43:09;8.03;;;4.00;;
23001;SDS011;11667;51.706;4.856;2023-07-22T09:45:40;9.35;;;4.70;;
23001;SDS011;11667;51.706;4.856;2023-07-22T09:48:10;8.75;;;4.30;;
23001;SDS011;11667;51.706;4.856;2023-07-22T09:50:39;7.10;;;4.03;;
23001;SDS011;11667;51.706;4.856;2023-07-22T09:53:09;9.08;;;3.87;;
23001;SDS011;11667;51.706;4.856;2023-07-22T09:55:41;9.45;;;4.60;;
23001;SDS011;11667;51.706;4.856;2023-07-22T09:58:11;7.92;;;4.12;;
23001;SDS011;11667;51.706;4.856;2023-07-22T10:00:45;8.30;;;4.12;;
23001;SDS011;11667;51.706;4.856;2023-07-22T10:05:44;5.83;;;3.33;;
23001;SDS011;11667;51.706;4.856;2023-07-22T10:08:15;7.20;;;3.75;;
23001;SDS011;11667;51.706;4.856;2023-07-22T10:10:48;8.18;;;3.85;;
23001;SDS011;11667;51.706;4.856;2023-07-22T10:15:48;9.08;;;4.10;;
23001;SDS011;11667;51.706;4.856;2023-07-22T10:18:18;7.28;;;4.00;;
23001;SDS011;11667;51.706;4.856;2023-07-22T10:20:47;7.10;;;4.22;;
23001;SDS011;11667;51.706;4.856;2023-07-22T10:23:17;8.93;;;4.50;;
23001;SDS011;11667;51.706;4.856;2023-07-22T10:25:47;7.53;;;4.78;;
23001;SDS011;11667;51.706;4.856;2023-07-22T10:28:17;8.48;;;3.72;;
23001;SDS011;11667;51.706;4.856;2023-07-22T10:30:54;6.12;;;3.30;;
23001;SDS011;11667;51.706;4.856;2023-07-22T10:33:25;7.47;;;3.25;;
23001;SDS011;11667;51.706;4.856;2023-07-22T10:36:13;6.47;;;3.58;;
23001;SDS011;11667;51.706;4.856;2023-07-22T10:38:55;5.10;;;2.98;;
23001;SDS011;11667;51.706;4.856;2023-07-22T10:44:15;6.37;;;3.00;;
23001;SDS011;11667;51.706;4.856;2023-07-22T10:46:54;5.35;;;2.55;;
23001;SDS011;11667;51.706;4.856;2023-07-22T10:49:19;4.72;;;2.62;;
23001;SDS011;11667;51.706;4.856;2023-07-22T10:51:49;5.80;;;2.62;;
23001;SDS011;11667;51.706;4.856;2023-07-22T10:54:32;4.40;;;2.27;;
23001;SDS011;11667;51.706;4.856;2023-07-22T10:57:03;3.50;;;2.40;;
23001;SDS011;11667;51.706;4.856;2023-07-22T10:59:48;4.47;;;2.65;;
23001;SDS011;11667;51.706;4.856;2023-07-22T11:02:25;5.40;;;2.50;;
23001;SDS011;11667;51.706;4.856;2023-07-22T11:04:58;4.30;;;2.15;;
23001;SDS011;11667;51.706;4.856;2023-07-22T11:10:15;4.05;;;2.33;;
23001;SDS011;11667;51.706;4.856;2023-07-22T11:15:18;9.00;;;3.72;;
23001;SDS011;11667;51.706;4.856;2023-07-22T11:17:45;5.00;;;3.72;;
23001;SDS011;11667;51.706;4.856;2023-07-22T11:20:15;5.85;;;4.05;;
23001;SDS011;11667;51.706;4.856;2023-07-22T11:22:44;6.00;;;4.00;;
23001;SDS011;11667;51.706;4.856;2023-07-22T11:25:17;6.40;;;4.40;;
23001;SDS011;11667;51.706;4.856;2023-07-22T11:27:46;8.13;;;4.35;;
23001;SDS011;11667;51.706;4.856;2023-07-22T11:30:16;8.60;;;4.05;;
23001;SDS011;11667;51.706;4.856;2023-07-22T11:32:46;6.55;;;4.20;;
23001;SDS011;11667;51.706;4.856;2023-07-22T11:35:17;7.58;;;3.87;;
23001;SDS011;11667;51.706;4.856;2023-07-22T11:37:47;9.53;;;4.53;;
23001;SDS011;11667;51.706;4.856;2023-07-22T11:40:17;7.97;;;4.35;;
23001;SDS011;11667;51.706;4.856;2023-07-22T11:42:46;7.67;;;4.80;;
23001;SDS011;11667;51.706;4.856;2023-07-22T11:45:17;7.20;;;4.28;;
23001;SDS011;11667;51.706;4.856;2023-07-22T11:47:46;9.03;;;4.72;;
23001;SDS011;11667;51.706;4.856;2023-07-22T11:50:16;7.87;;;5.20;;
23001;SDS011;11667;51.706;4.856;2023-07-22T11:52:51;8.88;;;4.65;;
23001;SDS011;11667;51.706;4.856;2023-07-22T11:55:22;8.33;;;4.80;;
23001;SDS011;11667;51.706;4.856;2023-07-22T11:57:53;7.10;;;4.35;;
23001;SDS011;11667;51.706;4.856;2023-07-22T12:00:23;7.17;;;4.50;;
23001;SDS011;11667;51.706;4.856;2023-07-22T12:02:52;7.85;;;4.20;;
23001;SDS011;11667;51.706;4.856;2023-07-22T12:05:23;6.35;;;4.50;;
23001;SDS011;11667;51.706;4.856;2023-07-22T12:07:52;6.80;;;4.30;;
23001;SDS011;11667;51.706;4.856;2023-07-22T12:10:23;10.88;;;4.15;;
23001;SDS011;11667;51.706;4.856;2023-07-22T12:12:53;6.90;;;4.20;;
23001;SDS011;11667;51.706;4.856;2023-07-22T12:15:22;7.20;;;3.90;;
23001;SDS011;11667;51.706;4.856;2023-07-22T12:17:53;8.53;;;4.05;;
23001;SDS011;11667;51.706;4.856;2023-07-22T12:20:28;8.10;;;3.55;;
23001;SDS011;11667;51.706;4.856;2023-07-22T12:22:59;7.12;;;3.95;;
23001;SDS011;11667;51.706;4.856;2023-07-22T12:25:29;7.53;;;3.45;;
23001;SDS011;11667;51.706;4.856;2023-07-22T12:28:00;8.28;;;3.55;;
23001;SDS011;11667;51.706;4.856;2023-07-22T12:30:29;7.10;;;3.62;;
23001;SDS011;11667;51.706;4.856;2023-07-22T12:32:58;6.22;;;3.20;;
23001;SDS011;11667;51.706;4.856;2023-07-22T12:35:28;7.58;;;3.40;;
23001;SDS011;11667;51.706;4.856;2023-07-22T12:37:57;6.55;;;3.05;;
23001;SDS011;11667;51.706;4.856;2023-07-22T12:40:26;7.53;;;3.20;;
23001;SDS011;11667;51.706;4.856;2023-07-22T12:42:56;5.60;;;2.40;;
23001;SDS011;11667;51.706;4.856;2023-07-22T12:45:27;4.55;;;2.20;;
23001;SDS011;11667;51.706;4.856;2023-07-22T12:47:57;5.95;;;2.00;;
23001;SDS011;11667;51.706;4.856;2023-07-22T12:50:26;4.00;;;1.98;;
23001;SDS011;11667;51.706;4.856;2023-07-22T12:52:57;5.90;;;2.02;;
23001;SDS011;11667;51.706;4.856;2023-07-22T12:55:27;5.00;;;2.37;;
23001;SDS011;11667;51.706;4.856;2023-07-22T12:57:56;4.87;;;2.20;;
23001;SDS011;11667;51.706;4.856;2023-07-22T13:00:26;5.55;;;2.12;;
23001;SDS011;11667;51.706;4.856;2023-07-22T13:02:55;6.03;;;2.05;;
23001;SDS011;11667;51.706;4.856;2023-07-22T13:05:25;3.10;;;2.00;;
23001;SDS011;11667;51.706;4.856;2023-07-22T13:07:54;5.30;;;2.08;;
23001;SDS011;11667;51.706;4.856;2023-07-22T13:10:24;6.03;;;2.47;;
23001;SDS011;11667;51.706;4.856;2023-07-22T13:12:53;5.05;;;2.08;;
23001;SDS011;11667;51.706;4.856;2023-07-22T13:15:23;3.52;;;1.75;;
23001;SDS011;11667;51.706;4.856;2023-07-22T13:17:52;4.85;;;2.00;;
23001;SDS011;11667;51.706;4.856;2023-07-22T13:20:22;3.58;;;1.80;;
23001;SDS011;11667;51.706;4.856;2023-07-22T13:22:51;3.65;;;1.62;;
23001;SDS011;11667;51.706;4.856;2023-07-22T13:25:20;4.05;;;2.20;;
23001;SDS011;11667;51.706;4.856;2023-07-22T13:27:50;5.45;;;2.10;;
23001;SDS011;11667;51.706;4.856;2023-07-22T13:30:19;3.25;;;1.95;;
23001;SDS011;11667;51.706;4.856;2023-07-22T13:32:48;4.42;;;2.17;;
23001;SDS011;11667;51.706;4.856;2023-07-22T13:35:18;4.25;;;2.20;;
23001;SDS011;11667;51.706;4.856;2023-07-22T13:37:47;3.65;;;2.05;;
23001;SDS011;11667;51.706;4.856;2023-07-22T13:40:17;3.02;;;2.22;;
23001;SDS011;11667;51.706;4.856;2023-07-22T13:42:46;2.58;;;1.92;;
23001;SDS011;11667;51.706;4.856;2023-07-22T13:45:15;3.37;;;1.87;;
23001;SDS011;11667;51.706;4.856;2023-07-22T13:47:45;4.15;;;2.47;;
23001;SDS011;11667;51.706;4.856;2023-07-22T13:50:14;5.20;;;2.40;;
23001;SDS011;11667;51.706;4.856;2023-07-22T13:52:44;4.45;;;2.20;;
23001;SDS011;11667;51.706;4.856;2023-07-22T13:55:13;3.47;;;2.25;;
23001;SDS011;11667;51.706;4.856;2023-07-22T13:57:42;4.40;;;2.20;;
23001;SDS011;11667;51.706;4.856;2023-07-22T14:00:12;4.37;;;2.52;;
23001;SDS011;11667;51.706;4.856;2023-07-22T14:02:41;4.92;;;2.42;;
23001;SDS011;11667;51.706;4.856;2023-07-22T14:05:11;5.08;;;2.60;;
23001;SDS011;11667;51.706;4.856;2023-07-22T14:07:40;4.50;;;2.30;;
23001;SDS011;11667;51.706;4.856;2023-07-22T14:10:10;5.55;;;2.65;;
23001;SDS011;11667;51.706;4.856;2023-07-22T14:12:39;6.92;;;2.95;;
23001;SDS011;11667;51.706;4.856;2023-07-22T14:15:08;4.30;;;2.33;;
23001;SDS011;11667;51.706;4.856;2023-07-22T14:17:38;5.58;;;2.05;;
23001;SDS011;11667;51.706;4.856;2023-07-22T14:20:07;4.45;;;2.27;;
23001;SDS011;11667;51.706;4.856;2023-07-22T14:22:38;5.85;;;2.17;;
23001;SDS011;11667;51.706;4.856;2023-07-22T14:25:08;4.95;;;2.30;;
23001;SDS011;11667;51.706;4.856;2023-07-22T14:27:38;3.95;;;2.20;;
23001;SDS011;11667;51.706;4.856;2023-07-22T14:30:08;5.45;;;2.00;;
23001;SDS011;11667;51.706;4.856;2023-07-22T14:32:38;6.00;;;2.15;;
23001;SDS011;11667;51.706;4.856;2023-07-22T14:35:07;3.40;;;2.10;;
23001;SDS011;11667;51.706;4.856;2023-07-22T14:37:37;3.95;;;2.08;;
23001;SDS011;11667;51.706;4.856;2023-07-22T14:40:06;7.65;;;3.60;;
23001;SDS011;11667;51.706;4.856;2023-07-22T14:45:37;4.92;;;2.80;;
23001;SDS011;11667;51.706;4.856;2023-07-22T14:48:06;9.23;;;5.95;;
23001;SDS011;11667;51.706;4.856;2023-07-22T14:50:36;5.60;;;3.25;;
23001;SDS011;11667;51.706;4.856;2023-07-22T14:53:05;9.13;;;2.33;;
23001;SDS011;11667;51.706;4.856;2023-07-22T14:55:57;5.05;;;2.20;;
23001;SDS011;11667;51.706;4.856;2023-07-22T14:58:26;3.70;;;2.27;;
23001;SDS011;11667;51.706;4.856;2023-07-22T15:00:55;4.62;;;2.10;;
23001;SDS011;11667;51.706;4.856;2023-07-22T15:03:26;3.60;;;2.00;;
23001;SDS011;11667;51.706;4.856;2023-07-22T15:05:56;9.68;;;2.22;;
23001;SDS011;11667;51.706;4.856;2023-07-22T15:08:25;2.95;;;1.80;;